createdAt,value
2024-03-06T00:00:37.627Z,32.83
2024-03-06T00:01:37.763Z,32.73
2024-03-06T00:02:37.795Z,32.83
2024-03-06T00:03:37.837Z,32.74
2024-03-06T00:04:37.974Z,32.74
2024-03-06T00:05:37.942Z,32.64
2024-03-06T00:06:38.006Z,32.72
2024-03-06T00:07:38.055Z,32.77
2024-03-06T00:08:38.091Z,32.63
2024-03-06T00:09:38.181Z,32.69
2024-03-06T00:10:38.391Z,32.61
2024-03-06T00:11:38.399Z,32.65
2024-03-06T00:12:38.437Z,32.76
2024-03-06T00:13:38.457Z,32.65
2024-03-06T00:14:38.524Z,32.71
2024-03-06T00:15:38.533Z,32.64
2024-03-06T00:16:38.612Z,32.69
2024-03-06T00:17:38.702Z,32.66
2024-03-06T00:18:38.723Z,32.69
2024-03-06T00:19:38.824Z,32.63
2024-03-06T00:20:38.852Z,32.59
2024-03-06T00:21:38.927Z,32.62
2024-03-06T00:22:38.990Z,32.63
2024-03-06T00:23:39.061Z,32.58
2024-03-06T00:24:39.125Z,32.60
2024-03-06T00:25:39.307Z,32.59
2024-03-06T00:26:39.255Z,32.53
2024-03-06T00:27:39.311Z,32.53
2024-03-06T00:28:39.417Z,32.60
2024-03-06T00:29:39.455Z,32.57
2024-03-06T00:30:39.495Z,32.47
2024-03-06T00:31:39.615Z,32.48
2024-03-06T00:32:39.660Z,32.44
2024-03-06T00:33:39.818Z,32.48
2024-03-06T00:34:39.816Z,32.48
2024-03-06T00:35:39.867Z,32.54
2024-03-06T00:36:39.950Z,32.44
2024-03-06T00:37:40.034Z,32.45
2024-03-06T00:38:40.089Z,32.41
2024-03-06T00:39:40.154Z,32.57
2024-03-06T00:40:40.270Z,32.41
2024-03-06T00:41:40.294Z,32.39
2024-03-06T00:42:40.317Z,32.41
2024-03-06T00:43:40.457Z,32.45
2024-03-06T00:44:40.490Z,32.41
2024-03-06T00:45:40.607Z,32.38
2024-03-06T00:46:40.662Z,32.36
2024-03-06T00:47:40.737Z,32.35
2024-03-06T00:48:42.177Z,32.25
2024-03-06T00:49:40.875Z,32.24
2024-03-06T00:50:40.955Z,32.23
2024-03-06T00:51:45.183Z,32.21
2024-03-06T00:52:42.021Z,32.27
2024-03-06T00:53:41.014Z,32.21
2024-03-06T00:54:40.967Z,32.23
2024-03-06T00:55:41.064Z,32.11
2024-03-06T00:56:40.976Z,32.12
2024-03-06T00:57:40.999Z,32.12
2024-03-06T00:58:41.033Z,32.01
2024-03-06T00:59:41.004Z,32.05
2024-03-06T01:00:41.076Z,32.10
2024-03-06T01:01:41.066Z,32.12
2024-03-06T01:02:41.110Z,32.19
2024-03-06T01:03:41.147Z,32.11
2024-03-06T01:04:41.231Z,32.09
2024-03-06T01:05:41.264Z,32.01
2024-03-06T01:06:41.298Z,32.09
2024-03-06T01:07:41.422Z,32.08
2024-03-06T01:08:41.359Z,32.05
2024-03-06T01:09:41.436Z,32.04
2024-03-06T01:10:41.533Z,32.11
2024-03-06T01:11:41.511Z,32.06
2024-03-06T01:12:41.598Z,32.11
2024-03-06T01:13:41.647Z,32.02
2024-03-06T01:14:41.632Z,32.04
2024-03-06T01:15:41.679Z,32.05
2024-03-06T01:16:41.722Z,31.93
2024-03-06T01:17:41.753Z,31.99
2024-03-06T01:18:41.745Z,31.90
2024-03-06T01:19:41.805Z,31.91
2024-03-06T01:20:41.805Z,31.95
2024-03-06T01:21:41.860Z,31.92
2024-03-06T01:22:41.884Z,31.95
2024-03-06T01:23:41.922Z,31.86
2024-03-06T01:24:41.880Z,31.86
2024-03-06T01:25:41.903Z,31.83
2024-03-06T01:26:41.920Z,31.86
2024-03-06T01:27:41.995Z,31.78
2024-03-06T01:28:41.929Z,31.75
2024-03-06T01:29:41.995Z,31.72
2024-03-06T01:30:41.975Z,31.74
2024-03-06T01:31:42.018Z,31.71
2024-03-06T01:32:42.078Z,31.67
2024-03-06T01:33:41.969Z,31.68
2024-03-06T01:34:41.997Z,31.69
2024-03-06T01:35:41.991Z,31.68
2024-03-06T01:36:41.981Z,31.56
2024-03-06T01:37:42.017Z,31.63
2024-03-06T01:38:41.994Z,31.59
2024-03-06T01:39:41.994Z,31.49
2024-03-06T01:40:42.116Z,31.56
2024-03-06T01:41:42.002Z,31.54
2024-03-06T01:42:41.989Z,31.56
2024-03-06T01:43:42.043Z,31.46
2024-03-06T01:44:42.020Z,31.40
2024-03-06T01:45:42.072Z,31.34
2024-03-06T01:46:42.132Z,31.45
2024-03-06T01:47:42.086Z,31.23
2024-03-06T01:48:42.106Z,31.27
2024-03-06T01:49:45.302Z,31.13
2024-03-06T01:50:42.119Z,31.09
2024-03-06T01:51:42.089Z,31.10
2024-03-06T01:52:42.127Z,31.04
2024-03-06T01:53:42.094Z,30.99
2024-03-06T01:54:42.117Z,31.06
2024-03-06T01:55:42.228Z,31.00
2024-03-06T01:56:42.124Z,31.06
2024-03-06T01:57:42.101Z,30.98
2024-03-06T01:58:42.170Z,31.01
2024-03-06T01:59:42.142Z,31.01
2024-03-06T02:00:42.116Z,31.00
2024-03-06T02:01:42.151Z,31.00
2024-03-06T02:02:42.119Z,31.05
2024-03-06T02:03:42.106Z,31.00
2024-03-06T02:04:42.126Z,31.00
2024-03-06T02:05:42.114Z,30.95
2024-03-06T02:06:42.121Z,31.05
2024-03-06T02:07:42.163Z,31.05
2024-03-06T02:08:42.132Z,31.02
2024-03-06T02:09:42.099Z,31.01
2024-03-06T02:10:42.151Z,31.08
2024-03-06T02:11:42.082Z,30.95
2024-03-06T02:12:42.121Z,31.02
2024-03-06T02:13:42.199Z,30.86
2024-03-06T02:14:42.102Z,30.85
2024-03-06T02:15:42.140Z,30.95
2024-03-06T02:16:42.227Z,30.92
2024-03-06T02:17:42.104Z,30.90
2024-03-06T02:18:42.113Z,30.94
2024-03-06T02:19:42.190Z,30.89
2024-03-06T02:20:42.150Z,30.89
2024-03-06T02:21:42.108Z,30.86
2024-03-06T02:22:42.145Z,30.89
2024-03-06T02:23:42.162Z,30.74
2024-03-06T02:24:42.140Z,30.78
2024-03-06T02:25:42.153Z,30.89
2024-03-06T02:26:42.118Z,30.78
2024-03-06T02:27:42.121Z,30.74
2024-03-06T02:28:42.121Z,30.74
2024-03-06T02:29:42.162Z,30.78
2024-03-06T02:30:42.132Z,30.74
2024-03-06T02:31:42.181Z,30.69
2024-03-06T02:32:42.198Z,30.74
2024-03-06T02:33:42.118Z,30.68
2024-03-06T02:34:42.182Z,30.69
2024-03-06T02:35:42.171Z,30.66
2024-03-06T02:36:42.139Z,30.66
2024-03-06T02:37:42.173Z,30.66
2024-03-06T02:38:42.129Z,30.69
2024-03-06T02:39:42.159Z,30.67
2024-03-06T02:40:42.233Z,30.65
2024-03-06T02:41:42.172Z,30.69
2024-03-06T02:42:42.192Z,30.67
2024-03-06T02:43:42.172Z,30.66
2024-03-06T02:44:42.129Z,30.58
2024-03-06T02:45:42.141Z,30.58
2024-03-06T02:46:42.176Z,30.54
2024-03-06T02:47:42.231Z,30.57
2024-03-06T02:48:42.155Z,30.56
2024-03-06T02:49:42.206Z,30.61
2024-03-06T02:50:42.146Z,30.65
2024-03-06T02:51:42.136Z,30.59
2024-03-06T02:52:42.233Z,30.67
2024-03-06T02:53:42.230Z,30.55
2024-03-06T02:54:42.148Z,30.64
2024-03-06T02:55:42.288Z,30.62
2024-03-06T02:56:42.166Z,30.56
2024-03-06T02:57:42.218Z,30.64
2024-03-06T02:58:42.319Z,30.65
2024-03-06T02:59:42.342Z,30.53
2024-03-06T03:00:42.486Z,30.51
2024-03-06T03:01:42.505Z,30.53
2024-03-06T03:02:42.507Z,30.59
2024-03-06T03:03:42.569Z,30.51
2024-03-06T03:04:42.607Z,30.50
2024-03-06T03:05:42.687Z,30.53
2024-03-06T03:06:42.686Z,30.56
2024-03-06T03:07:42.745Z,30.58
2024-03-06T03:08:42.812Z,30.51
2024-03-06T03:09:42.859Z,30.61
2024-03-06T03:10:42.957Z,30.57
2024-03-06T03:11:42.979Z,30.62
2024-03-06T03:12:43.051Z,30.62
2024-03-06T03:13:43.105Z,30.59
2024-03-06T03:14:43.171Z,30.61
2024-03-06T03:15:43.197Z,30.59
2024-03-06T03:16:43.383Z,30.63
2024-03-06T03:17:43.360Z,30.67
2024-03-06T03:18:43.392Z,30.63
2024-03-06T03:19:43.494Z,30.59
2024-03-06T03:20:43.507Z,30.53
2024-03-06T03:21:43.558Z,30.54
2024-03-06T03:22:43.641Z,30.54
2024-03-06T03:23:43.630Z,30.54
2024-03-06T03:24:43.679Z,30.50
2024-03-06T03:25:43.769Z,30.54
2024-03-06T03:26:43.794Z,30.48
2024-03-06T03:27:43.864Z,30.58
2024-03-06T03:28:43.929Z,30.51
2024-03-06T03:29:43.970Z,30.42
2024-03-06T03:30:44.034Z,30.56
2024-03-06T03:31:44.076Z,30.51
2024-03-06T03:32:44.140Z,30.54
2024-03-06T03:33:44.154Z,30.55
2024-03-06T03:34:44.238Z,30.52
2024-03-06T03:35:44.317Z,30.46
2024-03-06T03:36:44.331Z,30.46
2024-03-06T03:37:44.434Z,30.49
2024-03-06T03:38:44.444Z,30.48
2024-03-06T03:39:44.497Z,30.48
2024-03-06T03:40:44.559Z,30.43
2024-03-06T03:41:44.668Z,30.42
2024-03-06T03:42:44.649Z,30.45
2024-03-06T03:43:44.713Z,30.49
2024-03-06T03:44:44.728Z,30.52
2024-03-06T03:45:44.793Z,30.52
2024-03-06T03:46:44.954Z,30.56
2024-03-06T03:47:44.958Z,30.46
2024-03-06T03:48:44.957Z,30.45
2024-03-06T03:49:48.624Z,30.43
2024-03-06T03:50:46.112Z,30.45
2024-03-06T03:51:45.016Z,30.46
2024-03-06T03:52:45.112Z,30.42
2024-03-06T03:53:45.027Z,30.42
2024-03-06T03:54:45.029Z,30.49
2024-03-06T03:55:45.036Z,30.42
2024-03-06T03:56:45.039Z,30.46
2024-03-06T03:57:45.027Z,30.45
2024-03-06T03:58:45.067Z,30.46
2024-03-06T03:59:45.030Z,30.40
2024-03-06T04:00:45.113Z,30.42
2024-03-06T04:01:45.169Z,30.46
2024-03-06T04:02:45.210Z,30.40
2024-03-06T04:03:45.289Z,30.38
2024-03-06T04:04:45.391Z,30.36
2024-03-06T04:05:45.384Z,30.48
2024-03-06T04:06:45.431Z,30.41
2024-03-06T04:07:45.495Z,30.42
2024-03-06T04:08:45.552Z,30.37
2024-03-06T04:09:45.589Z,30.38
2024-03-06T04:10:45.670Z,30.47
2024-03-06T04:11:45.740Z,30.39
2024-03-06T04:12:45.812Z,30.38
2024-03-06T04:13:45.927Z,30.39
2024-03-06T04:14:45.923Z,30.38
2024-03-06T04:15:45.990Z,30.45
2024-03-06T04:16:46.042Z,30.41
2024-03-06T04:17:46.091Z,30.40
2024-03-06T04:18:46.175Z,30.42
2024-03-06T04:19:46.259Z,30.38
2024-03-06T04:20:46.293Z,30.39
2024-03-06T04:21:46.374Z,30.35
2024-03-06T04:22:46.446Z,30.42
2024-03-06T04:23:46.460Z,30.44
2024-03-06T04:24:46.518Z,30.36
2024-03-06T04:25:46.668Z,30.43
2024-03-06T04:26:46.681Z,30.44
2024-03-06T04:27:46.732Z,30.40
2024-03-06T04:28:46.823Z,30.35
2024-03-06T04:29:46.888Z,30.42
2024-03-06T04:30:46.972Z,30.47
2024-03-06T04:31:47.029Z,30.50
2024-03-06T04:32:47.069Z,30.39
2024-03-06T04:33:47.181Z,30.37
2024-03-06T04:34:47.218Z,30.44
2024-03-06T04:35:47.302Z,30.46
2024-03-06T04:36:47.331Z,30.47
2024-03-06T04:37:47.410Z,30.47
2024-03-06T04:38:47.466Z,30.43
2024-03-06T04:39:47.519Z,30.47
2024-03-06T04:40:47.676Z,30.51
2024-03-06T04:41:47.705Z,30.41
2024-03-06T04:42:47.741Z,30.38
2024-03-06T04:43:47.888Z,30.44
2024-03-06T04:44:47.911Z,30.41
2024-03-06T04:45:47.995Z,30.47
2024-03-06T04:46:48.090Z,30.50
2024-03-06T04:47:48.137Z,30.51
2024-03-06T04:48:48.197Z,30.41
2024-03-06T04:49:48.329Z,30.47
2024-03-06T04:50:48.358Z,30.37
2024-03-06T04:51:48.383Z,30.38
2024-03-06T04:52:48.507Z,30.47
2024-03-06T04:53:48.537Z,30.48
2024-03-06T04:54:48.624Z,30.52
2024-03-06T04:55:56.110Z,30.59
2024-03-06T04:56:55.981Z,30.58
2024-03-06T04:57:55.986Z,30.53
2024-03-06T04:58:56.002Z,30.55
2024-03-06T04:59:56.012Z,30.54
2024-03-06T05:00:56.125Z,30.55
2024-03-06T05:01:56.122Z,30.57
2024-03-06T05:58:13.504Z,30.38
2024-03-06T05:58:56.384Z,30.56
2024-03-06T05:59:56.362Z,30.77
2024-03-06T06:00:56.422Z,31.60
2024-03-06T06:01:56.370Z,32.12
2024-03-06T06:02:56.381Z,32.64
2024-03-06T06:03:56.365Z,32.35
2024-03-06T06:05:04.980Z,32.33
2024-03-06T06:05:57.376Z,33.01
2024-03-06T06:06:56.409Z,33.50
2024-03-06T06:07:56.405Z,33.75
2024-03-06T06:08:56.363Z,34.20
2024-03-06T06:09:56.360Z,34.43
2024-03-06T06:10:56.474Z,34.37
2024-03-06T06:11:56.469Z,34.36
2024-03-06T06:12:56.370Z,34.52
2024-03-06T06:13:56.443Z,34.70
2024-03-06T06:14:56.381Z,34.27
2024-03-06T06:15:56.347Z,35.05
2024-03-06T06:16:56.450Z,34.95
2024-03-06T06:17:56.501Z,35.26
2024-03-06T06:18:56.429Z,35.25
2024-03-06T06:19:56.553Z,35.55
2024-03-06T06:20:56.605Z,35.72
2024-03-06T06:21:56.651Z,35.58
2024-03-06T06:22:56.757Z,35.79
2024-03-06T06:23:56.764Z,36.22
2024-03-06T06:24:56.798Z,36.13
2024-03-06T06:25:56.929Z,36.05
2024-03-06T06:26:56.908Z,36.61
2024-03-06T06:27:56.985Z,37.07
2024-03-06T06:28:57.051Z,36.78
2024-03-06T06:29:57.115Z,36.91
2024-03-06T06:30:57.179Z,37.27
2024-03-06T06:31:57.240Z,37.86
2024-03-06T06:32:57.261Z,37.98
2024-03-06T06:33:57.306Z,38.32
2024-03-06T06:34:57.373Z,38.63
2024-03-06T06:35:57.462Z,38.33
2024-03-06T06:36:57.461Z,39.39
2024-03-06T06:37:57.544Z,40.06
2024-03-06T06:38:57.547Z,41.24
2024-03-06T06:39:57.608Z,42.22
2024-03-06T06:40:57.708Z,42.99
2024-03-06T06:41:57.800Z,41.97
2024-03-06T06:42:57.799Z,42.36
2024-03-06T06:43:57.864Z,42.41
2024-03-06T06:44:57.882Z,42.13
2024-03-06T06:45:59.216Z,42.05
2024-03-06T06:46:58.038Z,42.62
2024-03-06T06:47:58.106Z,42.21
2024-03-06T06:48:58.049Z,42.75
2024-03-06T06:49:58.162Z,42.79
2024-03-06T06:50:58.127Z,43.13
2024-03-06T06:51:58.154Z,43.49
2024-03-06T06:52:58.221Z,43.87
2024-03-06T06:54:00.785Z,44.31
2024-03-06T06:54:58.186Z,45.01
2024-03-06T06:55:58.276Z,45.44
2024-03-06T06:56:58.186Z,46.02
2024-03-06T06:57:58.165Z,45.89
2024-03-06T06:58:58.268Z,46.45
2024-03-06T06:59:58.197Z,46.79
2024-03-06T07:00:58.209Z,46.82
2024-03-06T07:01:58.459Z,46.71
2024-03-06T07:02:58.211Z,47.02
2024-03-06T07:03:58.224Z,47.14
2024-03-06T07:04:58.266Z,47.23
2024-03-06T07:05:58.203Z,47.22
2024-03-06T07:06:58.201Z,47.52
2024-03-06T07:07:58.268Z,47.54
2024-03-06T07:08:58.252Z,48.08
2024-03-06T07:09:58.205Z,48.38
2024-03-06T07:10:58.273Z,49.05
2024-03-06T07:11:58.271Z,49.24
2024-03-06T07:12:58.214Z,49.19
2024-03-06T07:13:58.264Z,49.27
2024-03-06T07:14:58.210Z,49.60
2024-03-06T07:15:58.231Z,49.81
2024-03-06T07:16:58.258Z,49.87
2024-03-06T07:17:58.366Z,49.76
2024-03-06T07:18:58.209Z,49.84
2024-03-06T07:19:58.249Z,50.01
2024-03-06T07:20:58.227Z,49.94
2024-03-06T07:21:58.251Z,50.41
2024-03-06T07:22:58.260Z,50.50
2024-03-06T07:23:58.196Z,51.12
2024-03-06T07:24:58.209Z,50.98
2024-03-06T07:25:58.292Z,51.82
2024-03-06T07:26:58.225Z,52.11
2024-03-06T07:27:58.246Z,52.10
2024-03-06T07:28:58.275Z,51.08
2024-03-06T07:29:58.245Z,51.51
2024-03-06T07:30:58.242Z,51.46
2024-03-06T07:31:58.294Z,51.54
2024-03-06T07:32:58.278Z,51.37
2024-03-06T07:33:58.280Z,51.52
2024-03-06T07:34:58.274Z,51.60
2024-03-06T07:35:58.271Z,51.96
2024-03-06T07:36:58.851Z,52.02
2024-03-06T07:37:58.287Z,52.59
2024-03-06T07:38:58.253Z,52.52
2024-03-06T07:39:58.278Z,52.62
2024-03-06T07:40:58.338Z,52.63
2024-03-06T07:41:58.283Z,52.62
2024-03-06T07:42:58.271Z,53.11
2024-03-06T07:43:58.274Z,52.80
2024-03-06T07:44:58.256Z,52.77
2024-03-06T07:45:58.256Z,52.79
2024-03-06T07:46:58.317Z,52.83
2024-03-06T07:47:58.370Z,52.92
2024-03-06T07:48:58.240Z,53.07
2024-03-06T07:49:58.319Z,53.18
2024-03-06T07:50:58.260Z,53.38
2024-03-06T07:51:58.324Z,53.36
2024-03-06T07:52:58.383Z,53.47
2024-03-06T07:53:58.260Z,53.34
2024-03-06T07:54:58.269Z,53.68
2024-03-06T07:55:58.323Z,53.82
2024-03-06T07:56:58.354Z,53.29
2024-03-06T07:57:58.355Z,53.19
2024-03-06T07:58:58.473Z,53.44
2024-03-06T07:59:58.437Z,53.21
2024-03-06T08:00:58.492Z,52.66
2024-03-06T08:01:58.601Z,52.31
2024-03-06T08:02:58.639Z,52.43
2024-03-06T08:03:58.666Z,52.25
2024-03-06T08:04:58.714Z,52.68
2024-03-06T08:05:58.754Z,52.69
2024-03-06T08:06:58.831Z,53.61
2024-03-06T08:07:58.909Z,53.41
2024-03-06T08:09:01.107Z,54.05
2024-03-06T08:09:58.906Z,53.82
2024-03-06T08:10:58.964Z,53.19
2024-03-06T08:11:59.070Z,53.35
2024-03-06T08:12:58.903Z,53.14
2024-03-06T08:13:58.964Z,53.12
2024-03-06T08:14:58.917Z,53.11
2024-03-06T08:15:58.885Z,52.97
2024-03-06T08:16:58.929Z,52.57
2024-03-06T08:17:58.953Z,52.39
2024-03-06T08:18:58.905Z,52.32
2024-03-06T08:19:58.962Z,52.12
2024-03-06T08:20:58.912Z,52.16
2024-03-06T08:21:58.983Z,52.23
2024-03-06T08:22:59.003Z,52.39
2024-03-06T08:23:58.901Z,52.90
2024-03-06T08:24:58.899Z,52.82
2024-03-06T08:25:58.905Z,52.83
2024-03-06T08:26:58.910Z,53.14
2024-03-06T08:27:58.901Z,53.17
2024-03-06T08:28:58.962Z,53.23
2024-03-06T08:29:58.937Z,52.91
2024-03-06T08:30:58.920Z,52.79
2024-03-06T08:31:58.937Z,52.84
2024-03-06T08:32:59.083Z,52.49
2024-03-06T08:33:58.993Z,52.35
2024-03-06T08:34:58.948Z,52.03
2024-03-06T08:35:59.006Z,51.84
2024-03-06T08:36:58.960Z,51.85
2024-03-06T08:37:59.008Z,52.09
2024-03-06T08:38:58.942Z,52.06
2024-03-06T08:39:58.932Z,52.11
2024-03-06T08:40:59.024Z,52.37
2024-03-06T08:41:58.996Z,52.70
2024-03-06T08:42:59.033Z,53.13
2024-03-06T08:43:59.095Z,53.06
2024-03-06T08:44:59.131Z,52.90
2024-03-06T08:45:59.185Z,52.79
2024-03-06T08:46:59.769Z,52.68
2024-03-06T08:47:59.310Z,52.62
2024-03-06T08:49:03.203Z,52.44
2024-03-06T08:50:00.355Z,52.22
2024-03-06T08:50:59.326Z,52.05
2024-03-06T08:51:59.311Z,52.09
2024-03-06T08:52:59.419Z,52.37
2024-03-06T08:53:59.330Z,52.48
2024-03-06T08:54:59.325Z,52.57
2024-03-06T08:55:59.349Z,52.66
2024-03-06T08:56:59.351Z,52.83
2024-03-06T08:57:59.354Z,52.71
2024-03-06T08:58:59.358Z,52.77
2024-03-06T08:59:59.382Z,52.69
2024-03-06T09:00:59.423Z,52.51
2024-03-06T09:01:59.500Z,52.37
2024-03-06T09:02:59.503Z,52.33
2024-03-06T09:03:59.580Z,52.23
2024-03-06T09:04:59.724Z,52.35
2024-03-06T09:05:59.681Z,52.80
2024-03-06T09:06:59.711Z,52.55
2024-03-06T09:08:02.399Z,52.78
2024-03-06T09:08:59.775Z,53.07
2024-03-06T09:09:59.773Z,53.50
2024-03-06T09:10:59.814Z,53.39
2024-03-06T09:11:59.765Z,53.55
2024-03-06T09:12:59.759Z,53.48
2024-03-06T09:14:00.784Z,53.17
2024-03-06T09:14:59.763Z,53.17
2024-03-06T09:15:59.803Z,52.97
2024-03-06T09:16:59.841Z,52.86
2024-03-06T09:17:59.944Z,52.84
2024-03-06T09:18:59.741Z,52.89
2024-03-06T09:20:08.406Z,53.05
2024-03-06T09:21:00.872Z,53.30
2024-03-06T09:21:59.820Z,53.35
2024-03-06T09:22:59.850Z,53.23
2024-03-06T09:23:59.784Z,53.27
2024-03-06T09:24:59.795Z,53.61
2024-03-06T09:25:59.855Z,53.37
2024-03-06T09:26:59.802Z,53.34
2024-03-06T09:27:59.806Z,53.27
2024-03-06T09:28:59.845Z,53.23
2024-03-06T09:29:59.794Z,53.05
2024-03-06T09:30:59.805Z,52.92
2024-03-06T09:31:59.913Z,52.92
2024-03-06T09:33:00.102Z,52.85
2024-03-06T09:33:59.935Z,53.08
2024-03-06T09:35:00.356Z,53.33
2024-03-06T09:36:00.097Z,53.26
2024-03-06T09:37:00.128Z,53.36
2024-03-06T09:38:00.163Z,53.25
2024-03-06T09:39:00.167Z,53.57
2024-03-06T09:40:00.256Z,53.52
2024-03-06T09:41:00.290Z,53.37
2024-03-06T09:42:00.346Z,53.11
2024-03-06T09:43:00.383Z,53.18
2024-03-06T09:44:00.407Z,52.80
2024-03-06T09:45:00.438Z,52.82
2024-03-06T09:46:00.566Z,53.25
2024-03-06T09:47:00.557Z,53.53
2024-03-06T09:48:00.732Z,53.29
2024-03-06T09:49:00.569Z,53.16
2024-03-06T09:50:01.659Z,53.45
2024-03-06T09:51:00.635Z,53.50
2024-03-06T09:52:00.685Z,53.01
2024-03-06T09:53:00.736Z,53.21
2024-03-06T09:54:00.703Z,53.66
2024-03-06T09:55:00.753Z,53.71
2024-03-06T09:56:00.845Z,53.77
2024-03-06T09:57:00.728Z,53.70
2024-03-06T09:58:00.747Z,53.71
2024-03-06T09:59:00.817Z,53.76
2024-03-06T10:00:00.817Z,54.06
2024-03-06T10:01:00.818Z,54.07
2024-03-06T10:02:00.861Z,54.43
2024-03-06T10:03:00.795Z,54.21
2024-03-06T10:04:00.799Z,54.58
2024-03-06T10:05:00.965Z,54.43
2024-03-06T10:06:04.456Z,54.38
2024-03-06T10:07:01.902Z,54.37
2024-03-06T10:08:00.932Z,54.40
2024-03-06T10:09:00.903Z,54.46
2024-03-06T10:10:00.922Z,54.20
2024-03-06T10:11:00.976Z,54.62
2024-03-06T10:12:04.702Z,54.84
2024-03-06T10:13:01.932Z,54.87
2024-03-06T10:14:00.933Z,54.95
2024-03-06T10:15:00.934Z,55.18
2024-03-06T10:16:00.957Z,55.28
2024-03-06T10:17:01.008Z,55.06
2024-03-06T10:18:00.972Z,55.35
2024-03-06T10:19:00.957Z,55.44
2024-03-06T10:20:00.989Z,55.47
2024-03-06T10:21:01.756Z,55.47
2024-03-06T10:22:01.027Z,55.46
2024-03-06T10:23:01.075Z,55.40
2024-03-06T10:24:01.109Z,55.14
2024-03-06T10:25:01.242Z,55.16
2024-03-06T10:26:01.353Z,55.10
2024-03-06T10:27:01.331Z,55.37
2024-03-06T10:28:01.402Z,55.40
2024-03-06T10:29:01.464Z,55.56
2024-03-06T10:30:04.293Z,55.52
2024-03-06T10:31:01.535Z,55.62
2024-03-06T10:32:01.635Z,55.52
2024-03-06T10:33:01.696Z,55.52
2024-03-06T10:34:01.568Z,55.49
2024-03-06T10:35:01.639Z,55.52
2024-03-06T10:36:05.138Z,55.31
2024-03-06T10:37:01.548Z,55.40
2024-03-06T10:38:01.570Z,55.32
2024-03-06T10:39:01.604Z,55.21
2024-03-06T10:40:01.553Z,55.10
2024-03-06T10:41:01.602Z,55.10
2024-03-06T10:42:01.531Z,55.37
2024-03-06T10:43:01.595Z,55.88
2024-03-06T10:44:01.563Z,55.59
2024-03-06T10:45:01.610Z,55.88
2024-03-06T10:46:01.614Z,55.58
2024-03-06T10:47:01.705Z,55.65
2024-03-06T10:48:04.222Z,55.79
2024-03-06T10:49:01.565Z,55.95
2024-03-06T10:50:01.978Z,56.01
2024-03-06T10:51:01.567Z,55.82
2024-03-06T10:52:01.601Z,55.60
2024-03-06T10:53:01.615Z,55.37
2024-03-06T10:54:01.635Z,55.25
2024-03-06T10:55:01.598Z,55.09
2024-03-06T10:56:01.665Z,55.03
2024-03-06T10:57:01.591Z,55.20
2024-03-06T10:58:01.599Z,55.31
2024-03-06T10:59:01.664Z,55.37
2024-03-06T11:00:04.512Z,55.50
2024-03-06T11:01:01.635Z,55.50
2024-03-06T11:02:01.705Z,55.51
2024-03-06T11:03:01.598Z,55.47
2024-03-06T11:04:01.634Z,55.42
2024-03-06T11:05:01.705Z,55.34
2024-03-06T11:06:04.963Z,55.25
2024-03-06T11:07:01.613Z,55.22
2024-03-06T11:08:01.664Z,54.96
2024-03-06T11:09:01.621Z,54.85
2024-03-06T11:10:01.652Z,54.67
2024-03-06T11:11:01.664Z,54.78
2024-03-06T11:12:01.678Z,55.07
2024-03-06T11:13:01.609Z,55.24
2024-03-06T11:14:01.665Z,55.42
2024-03-06T11:15:01.609Z,55.30
2024-03-06T11:16:01.613Z,55.47
2024-03-06T11:17:01.670Z,55.34
2024-03-06T11:18:04.134Z,55.38
2024-03-06T11:19:01.857Z,55.31
2024-03-06T11:20:02.369Z,55.22
2024-03-06T11:21:01.859Z,55.04
2024-03-06T11:22:01.868Z,54.80
2024-03-06T11:23:01.910Z,54.77
2024-03-06T11:24:04.722Z,54.90
2024-03-06T11:25:01.925Z,55.07
2024-03-06T11:26:01.993Z,55.00
2024-03-06T11:27:02.011Z,55.13
2024-03-06T11:28:01.929Z,55.21
2024-03-06T11:29:01.940Z,55.20
2024-03-06T11:30:04.539Z,55.18
2024-03-06T11:31:01.956Z,55.08
2024-03-06T11:32:01.980Z,55.15
2024-03-06T11:33:02.329Z,54.70
2024-03-06T11:34:02.035Z,54.36
2024-03-06T11:35:01.897Z,53.98
2024-03-06T11:36:05.022Z,53.74
2024-03-06T11:37:01.918Z,53.78
2024-03-06T11:38:01.985Z,53.58
2024-03-06T11:39:01.989Z,53.39
2024-03-06T11:40:01.939Z,53.37
2024-03-06T11:41:01.991Z,53.27
2024-03-06T11:42:01.978Z,53.29
2024-03-06T11:43:01.925Z,53.12
2024-03-06T11:44:02.105Z,53.08
2024-03-06T11:45:01.901Z,53.08
2024-03-06T11:46:01.914Z,52.96
2024-03-06T11:47:02.016Z,52.88
2024-03-06T11:48:02.071Z,52.85
2024-03-06T11:49:01.927Z,52.91
2024-03-06T11:50:01.967Z,52.98
2024-03-06T11:51:04.744Z,52.97
2024-03-06T11:52:01.919Z,52.96
2024-03-06T11:53:01.997Z,53.16
2024-03-06T11:54:01.941Z,53.17
2024-03-06T11:55:01.940Z,53.02
2024-03-06T11:56:01.954Z,53.02
2024-03-06T11:57:01.945Z,52.92
2024-03-06T11:58:01.957Z,52.71
2024-03-06T11:59:01.994Z,52.55
2024-03-06T12:00:01.927Z,52.48
2024-03-06T12:01:01.979Z,52.41
2024-03-06T12:02:02.005Z,52.64
2024-03-06T12:03:01.980Z,52.72
2024-03-06T12:04:04.910Z,52.92
2024-03-06T12:05:01.931Z,52.95
2024-03-06T12:06:01.953Z,53.01
2024-03-06T12:07:01.969Z,52.91
2024-03-06T12:08:01.938Z,52.75
2024-03-06T12:09:01.929Z,52.64
2024-03-06T12:10:01.968Z,52.23
2024-03-06T12:11:02.036Z,50.42
2024-03-06T12:12:02.124Z,47.14
2024-03-06T12:13:01.961Z,47.03
2024-03-06T12:14:01.986Z,47.08
2024-03-06T12:15:02.057Z,47.07
2024-03-06T12:16:04.727Z,47.12
2024-03-06T12:17:02.031Z,47.61
2024-03-06T12:18:02.071Z,48.03
2024-03-06T12:19:02.014Z,48.43
2024-03-06T12:20:02.087Z,48.89
2024-03-06T12:21:01.934Z,49.46
2024-03-06T12:22:04.670Z,49.69
2024-03-06T12:23:02.011Z,50.92
2024-03-06T12:24:01.974Z,51.24
2024-03-06T12:25:02.023Z,51.52
2024-03-06T12:26:06.102Z,51.54
2024-03-06T12:27:01.967Z,51.60
2024-03-06T12:28:01.975Z,51.38
2024-03-06T12:29:01.995Z,51.45
2024-03-06T12:30:02.096Z,51.53
2024-03-06T12:31:01.962Z,51.34
2024-03-06T12:32:02.109Z,51.18
2024-03-06T12:33:02.059Z,50.98
2024-03-06T12:34:04.760Z,50.90
2024-03-06T12:35:02.488Z,51.00
2024-03-06T12:36:01.995Z,51.17
2024-03-06T12:37:02.032Z,51.32
2024-03-06T12:38:02.857Z,51.52
2024-03-06T12:39:02.002Z,51.45
2024-03-06T12:40:02.091Z,51.56
2024-03-06T12:41:02.019Z,51.56
2024-03-06T12:42:02.006Z,51.34
2024-03-06T12:43:01.984Z,51.29
2024-03-06T12:44:02.107Z,51.21
2024-03-06T12:45:02.010Z,51.16
2024-03-06T12:46:04.270Z,50.97
2024-03-06T12:47:02.063Z,50.81
2024-03-06T12:48:02.095Z,49.27
2024-03-06T12:49:01.993Z,47.43
2024-03-06T12:50:02.094Z,46.84
2024-03-06T12:51:02.010Z,45.59
2024-03-06T12:52:05.695Z,44.58
2024-03-06T12:53:02.107Z,44.04
2024-03-06T12:54:02.130Z,43.45
2024-03-06T12:55:02.037Z,42.58
2024-03-06T12:56:02.148Z,43.12
2024-03-06T12:57:02.039Z,42.04
2024-03-06T12:58:02.010Z,41.86
2024-03-06T12:59:02.106Z,41.76
2024-03-06T13:00:02.035Z,41.68
2024-03-06T13:01:02.070Z,41.02
2024-03-06T13:02:02.138Z,40.21
2024-03-06T13:03:02.026Z,40.19
2024-03-06T13:04:06.470Z,39.92
2024-03-06T13:05:03.036Z,40.17
2024-03-06T13:06:02.192Z,39.34
2024-03-06T13:07:02.030Z,39.42
2024-03-06T13:08:02.058Z,40.21
2024-03-06T13:09:02.017Z,38.70
2024-03-06T13:10:04.817Z,38.29
2024-03-06T13:11:02.133Z,38.46
2024-03-06T13:12:02.219Z,38.74
2024-03-06T13:13:02.055Z,38.75
2024-03-06T13:14:02.184Z,38.52
2024-03-06T13:15:02.065Z,38.76
2024-03-06T13:16:04.867Z,38.18
2024-03-06T13:17:02.121Z,38.22
2024-03-06T13:18:02.125Z,38.36
2024-03-06T13:19:02.074Z,38.31
2024-03-06T13:20:02.162Z,38.32
2024-03-06T13:21:02.104Z,38.64
2024-03-06T13:22:04.467Z,38.27
2024-03-06T13:23:02.109Z,37.90
2024-03-06T13:24:02.088Z,37.77
2024-03-06T13:25:02.051Z,37.53
2024-03-06T13:26:02.337Z,37.16
2024-03-06T13:27:02.061Z,36.85
2024-03-06T13:28:02.049Z,36.77
2024-03-06T13:29:02.104Z,36.85
2024-03-06T13:30:04.743Z,36.59
2024-03-06T13:31:02.071Z,36.38
2024-03-06T13:32:02.188Z,36.43
2024-03-06T13:33:02.248Z,36.50
2024-03-06T13:34:02.107Z,36.35
2024-03-06T13:35:02.159Z,36.12
2024-03-06T13:36:05.223Z,36.52
2024-03-06T13:37:02.053Z,36.01
2024-03-06T13:38:02.106Z,36.03
2024-03-06T13:39:02.128Z,35.70
2024-03-06T13:40:02.282Z,35.73
2024-03-06T13:41:02.128Z,35.64
2024-03-06T13:42:02.097Z,35.56
2024-03-06T13:43:02.089Z,35.72
2024-03-06T13:44:02.135Z,35.83
2024-03-06T13:45:02.075Z,35.71
2024-03-06T13:46:02.101Z,35.55
2024-03-06T13:47:02.114Z,35.40
2024-03-06T13:48:02.179Z,35.33